Time,TemperatureF,DewpointF,PressureIn,WindDirection,WindDirectionDegrees,WindSpeedMPH,WindSpeedGustMPH,Humidity,HourlyPrecipIn,Conditions,Clouds,dailyrainin,SoftwareType,DateUTC
2013-06-01 00:01:00,53.0,46.0,29.99,WNW,294,0.0,2.0,78,0.00,,,0.00,,2013-06-01 07:01:00,
2013-06-01 00:11:00,53.0,46.0,29.99,WNW,294,0.0,2.0,78,0.00,,,0.00,,2013-06-01 07:11:00,
2013-06-01 00:21:00,52.0,46.0,29.99,WNW,294,0.0,1.0,79,0.00,,,0.00,,2013-06-01 07:21:00,
2013-06-01 00:31:00,52.0,46.0,29.99,WNW,294,0.0,1.0,79,0.00,,,0.00,,2013-06-01 07:31:00,
2013-06-01 00:41:00,52.0,46.0,29.98,WNW,294,0.0,2.0,80,0.00,,,0.00,,2013-06-01 07:41:00,
2013-06-01 00:52:00,52.0,46.0,29.98,WNW,294,0.0,2.0,80,0.00,,,0.00,,2013-06-01 07:52:00,
2013-06-01 01:01:00,51.0,45.0,29.99,WNW,294,0.0,2.0,81,0.00,,,0.00,,2013-06-01 08:01:00,
2013-06-01 01:11:00,51.0,45.0,29.99,WNW,294,1.0,2.0,81,0.00,,,0.00,,2013-06-01 08:11:00,
2013-06-01 01:21:00,51.0,45.0,29.99,WNW,294,1.0,2.0,81,0.00,,,0.00,,2013-06-01 08:21:00,
2013-06-01 01:32:00,51.0,45.0,29.98,WNW,294,0.0,1.0,81,0.00,,,0.00,,2013-06-01 08:32:00,
2013-06-01 01:42:00,51.0,45.0,29.98,WNW,294,0.0,2.0,81,0.00,,,0.00,,2013-06-01 08:42:00,
2013-06-01 01:52:00,51.0,45.0,29.98,WNW,294,0.0,2.0,81,0.00,,,0.00,,2013-06-01 08:52:00,
2013-06-01 02:01:00,51.0,46.0,29.98,WNW,294,0.0,2.0,82,0.00,,,0.00,,2013-06-01 09:01:00,
2013-06-01 02:12:00,51.0,46.0,29.98,WNW,294,0.0,2.0,82,0.00,,,0.00,,2013-06-01 09:12:00,
2013-06-01 02:21:00,50.0,45.0,29.98,WNW,294,0.0,2.0,82,0.00,,,0.00,,2013-06-01 09:21:00,
2013-06-01 02:32:00,50.0,45.0,29.97,WNW,294,0.0,2.0,82,0.00,,,0.00,,2013-06-01 09:32:00,
2013-06-01 02:42:00,50.0,45.0,29.97,WNW,294,0.0,2.0,82,0.00,,,0.00,,2013-06-01 09:42:00,
2013-06-01 02:53:00,50.0,45.0,29.97,WNW,294,0.0,1.0,82,0.00,,,0.00,,2013-06-01 09:53:00,
2013-06-01 03:02:00,50.0,45.0,29.96,WNW,294,0.0,2.0,82,0.00,,,0.00,,2013-06-01 10:02:00,
2013-06-01 03:12:00,50.0,45.0,29.96,WNW,294,0.0,2.0,82,0.00,,,0.00,,2013-06-01 10:12:00,
2013-06-01 03:22:00,50.0,45.0,29.96,WNW,294,1.0,2.0,82,0.00,,,0.00,,2013-06-01 10:22:00,
2013-06-01 03:32:00,49.0,44.0,29.96,WNW,294,0.0,1.0,82,0.00,,,0.00,,2013-06-01 10:32:00,
2013-06-01 03:42:00,49.0,44.0,29.96,WNW,294,0.0,1.0,82,0.00,,,0.00,,2013-06-01 10:42:00,
2013-06-01 03:52:00,49.0,44.0,29.95,WNW,294,0.0,2.0,83,0.00,,,0.00,,2013-06-01 10:52:00,
2013-06-01 04:02:00,49.0,44.0,29.95,WNW,294,0.0,1.0,83,0.00,,,0.00,,2013-06-01 11:02:00,
2013-06-01 04:11:00,49.0,44.0,29.95,WNW,294,0.0,1.0,83,0.00,,,0.00,,2013-06-01 11:11:00,
2013-06-01 04:21:00,49.0,44.0,29.95,WNW,294,0.0,2.0,83,0.00,,,0.00,,2013-06-01 11:21:00,
2013-06-01 04:32:00,49.0,44.0,29.94,WNW,294,0.0,3.0,83,0.00,,,0.00,,2013-06-01 11:32:00,
2013-06-01 04:42:00,49.0,44.0,29.94,WNW,294,0.0,3.0,83,0.00,,,0.00,,2013-06-01 11:42:00,
2013-06-01 04:52:00,49.0,44.0,29.94,WNW,294,0.0,2.0,83,0.00,,,0.00,,2013-06-01 11:52:00,
2013-06-01 05:01:00,49.0,44.0,29.94,WNW,294,0.0,2.0,83,0.00,,,0.00,,2013-06-01 12:01:00,
2013-06-01 05:11:00,49.0,44.0,29.94,WNW,294,0.0,2.0,83,0.00,,,0.00,,2013-06-01 12:11:00,
2013-06-01 05:21:00,48.0,43.0,29.95,WNW,294,0.0,1.0,83,0.00,,,0.00,,2013-06-01 12:21:00,
2013-06-01 05:32:00,48.0,43.0,29.94,WNW,294,0.0,2.0,84,0.00,,,0.00,,2013-06-01 12:32:00,
2013-06-01 05:41:00,48.0,43.0,29.94,WNW,294,0.0,2.0,84,0.00,,,0.00,,2013-06-01 12:41:00,
2013-06-01 05:52:00,48.0,43.0,29.94,WNW,294,0.0,1.0,84,0.00,,,0.00,,2013-06-01 12:52:00,
2013-06-01 06:01:00,48.0,43.0,29.94,WNW,294,1.0,2.0,84,0.00,,,0.00,,2013-06-01 13:01:00,
2013-06-01 06:11:00,48.0,43.0,29.94,WNW,294,1.0,2.0,84,0.00,,,0.00,,2013-06-01 13:11:00,
2013-06-01 06:22:00,48.0,43.0,29.94,WNW,294,1.0,2.0,84,0.00,,,0.00,,2013-06-01 13:22:00,
2013-06-01 06:32:00,49.0,44.0,29.94,WNW,294,0.0,0.0,84,0.00,,,0.00,,2013-06-01 13:32:00,
2013-06-01 06:42:00,49.0,44.0,29.94,WNW,294,0.0,0.0,84,0.00,,,0.00,,2013-06-01 13:42:00,
2013-06-01 06:52:00,49.0,44.0,29.94,WNW,294,0.0,0.0,84,0.00,,,0.00,,2013-06-01 13:52:00,
2013-06-01 07:01:00,50.0,45.0,29.94,WNW,294,0.0,1.0,83,0.00,,,0.00,,2013-06-01 14:01:00,
2013-06-01 07:11:00,50.0,45.0,29.94,WNW,294,0.0,1.0,83,0.00,,,0.00,,2013-06-01 14:11:00,
2013-06-01 07:21:00,51.0,46.0,29.95,WNW,294,1.0,1.0,82,0.00,,,0.00,,2013-06-01 14:21:00,
2013-06-01 07:32:00,53.0,47.0,29.95,WNW,294,1.0,2.0,80,0.00,,,0.00,,2013-06-01 14:32:00,
2013-06-01 07:42:00,53.0,47.0,29.95,WNW,294,1.0,2.0,80,0.00,,,0.00,,2013-06-01 14:42:00,
2013-06-01 07:52:00,54.0,48.0,29.96,WNW,294,0.0,1.0,79,0.00,,,0.00,,2013-06-01 14:52:00,
2013-06-01 08:01:00,55.0,48.0,29.95,NW,308,1.0,2.0,77,0.00,,,0.00,,2013-06-01 15:01:00,
2013-06-01 08:11:00,55.0,48.0,29.95,NW,308,1.0,2.0,77,0.00,,,0.00,,2013-06-01 15:11:00,
2013-06-01 08:21:00,57.0,49.0,29.95,NNW,344,0.0,2.0,74,0.00,,,0.00,,2013-06-01 15:21:00,
2013-06-01 08:33:00,59.0,50.0,29.95,NNW,345,0.0,1.0,73,0.00,,,0.00,,2013-06-01 15:33:00,
2013-06-01 08:42:00,59.0,50.0,29.95,NNW,345,0.0,1.0,73,0.00,,,0.00,,2013-06-01 15:42:00,
2013-06-01 08:53:00,62.0,51.0,29.95,North,355,0.0,2.0,67,0.00,,,0.00,,2013-06-01 15:53:00,
2013-06-01 09:03:00,65.0,51.0,29.95,NNE,17,0.0,2.0,61,0.00,,,0.00,,2013-06-01 16:03:00,
2013-06-01 09:12:00,65.0,51.0,29.95,NNE,17,0.0,2.0,61,0.00,,,0.00,,2013-06-01 16:12:00,
2013-06-01 09:33:00,71.0,54.0,29.95,ENE,61,1.0,4.0,55,0.00,,,0.00,,2013-06-01 16:33:00,
2013-06-01 10:02:00,76.0,55.0,29.94,ENE,63,1.0,5.0,49,0.00,,,0.00,,2013-06-01 17:02:00,
2013-06-01 10:32:00,79.0,53.0,29.93,West,269,1.0,6.0,41,0.00,,,0.00,,2013-06-01 17:32:00,
2013-06-01 11:01:00,81.0,53.0,29.93,South,183,2.0,7.0,38,0.00,,,0.00,,2013-06-01 18:01:00,
2013-06-01 11:21:00,83.0,53.0,29.93,West,272,1.0,5.0,36,0.00,,,0.00,,2013-06-01 18:21:00,
2013-06-01 11:32:00,84.0,53.0,29.93,NNE,19,1.0,5.0,35,0.00,,,0.00,,2013-06-01 18:32:00,
2013-06-01 12:01:00,85.0,53.0,29.92,ESE,119,3.0,8.0,34,0.00,,,0.00,,2013-06-01 19:01:00,
2013-06-01 12:11:00,86.0,54.0,29.92,SW,221,3.0,6.0,33,0.00,,,0.00,,2013-06-01 19:11:00,
2013-06-01 12:32:00,87.0,55.0,29.92,East,80,2.0,6.0,34,0.00,,,0.00,,2013-06-01 19:32:00,
2013-06-01 13:01:00,88.0,52.0,29.91,NW,319,3.0,7.0,29,0.00,,,0.00,,2013-06-01 20:01:00,
2013-06-01 13:32:00,90.0,52.0,29.90,SW,219,3.0,7.0,28,0.00,,,0.00,,2013-06-01 20:32:00,
2013-06-01 13:41:00,89.0,52.0,29.90,NW,312,3.0,9.0,28,0.00,,,0.00,,2013-06-01 20:41:00,
2013-06-01 14:01:00,89.0,54.0,29.90,NE,46,2.0,8.0,30,0.00,,,0.00,,2013-06-01 21:01:00,
2013-06-01 14:11:00,88.0,54.0,29.89,NE,55,4.0,9.0,32,0.00,,,0.00,,2013-06-01 21:11:00,
2013-06-01 14:33:00,87.0,55.0,29.89,ENE,78,4.0,6.0,34,0.00,,,0.00,,2013-06-01 21:33:00,
2013-06-01 14:53:00,85.0,54.0,29.89,SSE,165,2.0,9.0,35,0.00,,,0.00,,2013-06-01 21:53:00,
2013-06-01 15:02:00,84.0,54.0,29.89,ENE,66,2.0,9.0,36,0.00,,,0.00,,2013-06-01 22:02:00,
2013-06-01 15:12:00,85.0,55.0,29.89,East,96,3.0,5.0,36,0.00,,,0.00,,2013-06-01 22:12:00,
2013-06-01 15:23:00,85.0,55.0,29.89,East,96,3.0,5.0,36,0.00,,,0.00,,2013-06-01 22:23:00,
2013-06-01 15:33:00,84.0,54.0,29.88,ENE,62,0.0,6.0,36,0.00,,,0.00,,2013-06-01 22:33:00,
2013-06-01 15:42:00,84.0,54.0,29.88,ENE,62,0.0,6.0,36,0.00,,,0.00,,2013-06-01 22:42:00,
2013-06-01 15:53:00,84.0,54.0,29.88,East,101,1.0,6.0,36,0.00,,,0.00,,2013-06-01 22:53:00,
2013-06-01 16:02:00,83.0,52.0,29.88,ESE,105,2.0,8.0,34,0.00,,,0.00,,2013-06-01 23:02:00,
2013-06-01 16:11:00,83.0,52.0,29.87,SE,124,1.0,4.0,35,0.00,,,0.00,,2013-06-01 23:11:00,
2013-06-01 16:21:00,83.0,52.0,29.87,SE,124,1.0,4.0,35,0.00,,,0.00,,2013-06-01 23:21:00,
2013-06-01 16:32:00,82.0,52.0,29.87,West,271,1.0,5.0,36,0.00,,,0.00,,2013-06-01 23:32:00,
2013-06-01 16:42:00,82.0,52.0,29.87,West,271,1.0,5.0,36,0.00,,,0.00,,2013-06-01 23:42:00,
2013-06-01 16:52:00,80.0,51.0,29.87,SSW,206,7.0,9.0,37,0.00,,,0.00,,2013-06-01 23:52:00,
2013-06-01 17:01:00,75.0,51.0,29.87,WSW,246,5.0,11.0,43,0.00,,,0.00,,2013-06-02 00:01:00,
2013-06-01 17:11:00,75.0,51.0,29.87,WSW,246,5.0,11.0,43,0.00,,,0.00,,2013-06-02 00:11:00,
2013-06-01 17:21:00,77.0,53.0,29.87,NE,53,0.0,6.0,43,0.00,,,0.00,,2013-06-02 00:21:00,
2013-06-01 17:31:00,77.0,52.0,29.86,ESE,107,1.0,5.0,42,0.00,,,0.00,,2013-06-02 00:31:00,
2013-06-01 17:41:00,77.0,52.0,29.86,ESE,107,1.0,5.0,42,0.00,,,0.00,,2013-06-02 00:41:00,
2013-06-01 17:52:00,78.0,52.0,29.86,ENE,61,0.0,4.0,41,0.00,,,0.00,,2013-06-02 00:52:00,
2013-06-01 18:01:00,79.0,52.0,29.85,ESE,108,0.0,2.0,39,0.00,,,0.00,,2013-06-02 01:01:00,
2013-06-01 18:11:00,79.0,52.0,29.85,ESE,108,0.0,2.0,39,0.00,,,0.00,,2013-06-02 01:11:00,
2013-06-01 18:21:00,79.0,52.0,29.85,SE,125,1.0,4.0,39,0.00,,,0.00,,2013-06-02 01:21:00,
2013-06-01 18:32:00,77.0,51.0,29.85,NNW,335,1.0,7.0,40,0.00,,,0.00,,2013-06-02 01:32:00,
2013-06-01 18:41:00,77.0,51.0,29.85,NNW,335,1.0,7.0,40,0.00,,,0.00,,2013-06-02 01:41:00,
2013-06-01 18:52:00,75.0,50.0,29.85,ENE,78,0.0,4.0,41,0.00,,,0.00,,2013-06-02 01:52:00,
2013-06-01 19:01:00,73.0,47.0,29.85,SE,130,1.0,5.0,40,0.00,,,0.00,,2013-06-02 02:01:00,
2013-06-01 19:12:00,73.0,47.0,29.85,SE,130,1.0,5.0,40,0.00,,,0.00,,2013-06-02 02:12:00,
2013-06-01 19:21:00,71.0,47.0,29.85,SW,232,0.0,6.0,43,0.00,,,0.00,,2013-06-02 02:21:00,
2013-06-01 19:32:00,70.0,48.0,29.85,NE,46,0.0,5.0,45,0.00,,,0.00,,2013-06-02 02:32:00,
2013-06-01 19:41:00,70.0,48.0,29.85,NE,46,0.0,5.0,45,0.00,,,0.00,,2013-06-02 02:41:00,
2013-06-01 19:52:00,69.0,47.0,29.85,NNE,17,0.0,3.0,46,0.00,,,0.00,,2013-06-02 02:52:00,
2013-06-01 20:01:00,67.0,47.0,29.85,East,90,0.0,6.0,48,0.00,,,0.00,,2013-06-02 03:01:00,
2013-06-01 20:11:00,67.0,47.0,29.85,East,90,0.0,6.0,48,0.00,,,0.00,,2013-06-02 03:11:00,
2013-06-01 20:21:00,66.0,47.0,29.85,East,95,0.0,3.0,50,0.00,,,0.00,,2013-06-02 03:21:00,
2013-06-01 20:33:00,65.0,47.0,29.84,ENE,76,0.0,4.0,52,0.00,,,0.00,,2013-06-02 03:33:00,
2013-06-01 20:43:00,65.0,47.0,29.84,ENE,76,0.0,4.0,52,0.00,,,0.00,,2013-06-02 03:43:00,
2013-06-01 20:53:00,64.0,47.0,29.85,ESE,123,0.0,3.0,53,0.00,,,0.00,,2013-06-02 03:53:00,
2013-06-01 21:02:00,63.0,47.0,29.85,East,80,1.0,6.0,55,0.00,,,0.00,,2013-06-02 04:02:00,
2013-06-01 21:12:00,63.0,47.0,29.85,East,80,1.0,6.0,55,0.00,,,0.00,,2013-06-02 04:12:00,
2013-06-01 21:23:00,62.0,47.0,29.85,NE,35,0.0,2.0,57,0.00,,,0.00,,2013-06-02 04:23:00,
2013-06-01 21:32:00,61.0,47.0,29.85,ENE,61,1.0,5.0,59,0.00,,,0.00,,2013-06-02 04:32:00,
2013-06-01 21:42:00,61.0,47.0,29.85,ENE,61,1.0,5.0,59,0.00,,,0.00,,2013-06-02 04:42:00,
2013-06-01 21:53:00,60.0,47.0,29.85,ENE,57,0.0,1.0,61,0.00,,,0.00,,2013-06-02 04:53:00,
2013-06-01 22:02:00,59.0,47.0,29.85,ENE,57,0.0,2.0,64,0.00,,,0.00,,2013-06-02 05:02:00,
2013-06-01 22:11:00,59.0,47.0,29.85,ENE,57,0.0,2.0,64,0.00,,,0.00,,2013-06-02 05:11:00,
2013-06-01 22:22:00,58.0,47.0,29.86,ENE,57,0.0,0.0,66,0.00,,,0.00,,2013-06-02 05:22:00,
2013-06-01 22:32:00,57.0,47.0,29.85,ENE,57,0.0,2.0,68,0.00,,,0.00,,2013-06-02 05:32:00,
2013-06-01 22:42:00,57.0,47.0,29.85,ENE,57,0.0,2.0,68,0.00,,,0.00,,2013-06-02 05:42:00,
2013-06-01 22:52:00,57.0,47.0,29.86,ENE,57,0.0,1.0,69,0.00,,,0.00,,2013-06-02 05:52:00,
2013-06-01 23:01:00,56.0,46.0,29.85,ENE,57,0.0,0.0,70,0.00,,,0.00,,2013-06-02 06:01:00,
2013-06-01 23:12:00,56.0,46.0,29.85,ENE,57,0.0,0.0,70,0.00,,,0.00,,2013-06-02 06:12:00,
2013-06-01 23:21:00,56.0,47.0,29.85,ENE,57,0.0,0.0,71,0.00,,,0.00,,2013-06-02 06:21:00,
2013-06-01 23:31:00,55.0,47.0,29.85,ENE,57,0.0,1.0,73,0.00,,,0.00,,2013-06-02 06:31:00,
2013-06-01 23:41:00,55.0,47.0,29.85,ENE,57,0.0,1.0,73,0.00,,,0.00,,2013-06-02 06:41:00,
2013-06-01 23:52:00,54.0,46.0,29.85,ENE,57,0.0,1.0,74,0.00,,,0.00,,2013-06-02 06:52:00,